createdAt,value
2018-12-19T00:01:21.059Z,6.50
2018-12-19T00:03:26.006Z,6.50
2018-12-19T00:05:32.082Z,6.50
2018-12-19T00:07:36.878Z,6.50
2018-12-19T00:09:42.606Z,6.50
2018-12-19T00:11:48.283Z,6.50
2018-12-19T00:13:54.021Z,6.50
2018-12-19T00:15:59.123Z,6.50
2018-12-19T00:18:04.269Z,6.50
2018-12-19T00:20:10.598Z,6.30
2018-12-19T00:22:20.109Z,6.30
2018-12-19T00:24:26.023Z,6.40
2018-12-19T00:26:32.484Z,6.50
2018-12-19T00:28:37.303Z,6.50
2018-12-19T00:30:42.479Z,6.40
2018-12-19T00:32:49.656Z,6.40
2018-12-19T00:34:55.630Z,6.40
2018-12-19T00:37:02.737Z,6.40
2018-12-19T00:39:10.186Z,6.40
2018-12-19T00:41:17.281Z,6.40
2018-12-19T00:43:26.909Z,6.40
2018-12-19T00:45:31.700Z,6.40
2018-12-19T00:47:38.266Z,6.30
2018-12-19T00:49:49.015Z,6.40
2018-12-19T00:51:54.839Z,6.40
2018-12-19T00:54:00.734Z,6.40
2018-12-19T00:56:07.050Z,6.40
2018-12-19T00:58:12.221Z,6.40
2018-12-19T01:00:17.787Z,6.50
2018-12-19T01:02:23.437Z,6.40
2018-12-19T01:04:30.550Z,6.30
2018-12-19T01:06:38.626Z,6.30
2018-12-19T01:08:45.568Z,6.30
2018-12-19T01:10:54.186Z,6.30
2018-12-19T01:13:02.837Z,6.40
2018-12-19T01:15:10.980Z,6.40
2018-12-19T01:17:19.064Z,6.40
2018-12-19T01:19:30.412Z,6.30
2018-12-19T01:21:35.661Z,6.30
2018-12-19T01:23:42.309Z,6.40
2018-12-19T01:25:48.849Z,6.40
2018-12-19T01:27:55.783Z,6.40
2018-12-19T01:30:03.210Z,6.50
2018-12-19T01:32:11.348Z,6.50
2018-12-19T01:34:16.054Z,6.40
2018-12-19T01:36:20.755Z,6.40
2018-12-19T01:38:25.739Z,6.40
2018-12-19T01:40:33.042Z,6.40
2018-12-19T01:42:38.118Z,6.30
2018-12-19T01:44:44.199Z,6.30
2018-12-19T01:46:49.147Z,6.30
2018-12-19T01:48:54.334Z,6.30
2018-12-19T01:50:59.157Z,6.30
2018-12-19T01:53:04.150Z,6.30
2018-12-19T01:55:09.421Z,6.30
2018-12-19T01:57:14.132Z,6.30
2018-12-19T01:59:19.165Z,6.40
2018-12-19T02:01:24.416Z,6.30
2018-12-19T02:03:29.566Z,6.30
2018-12-19T02:05:34.540Z,6.30
2018-12-19T02:07:39.694Z,6.30
2018-12-19T02:09:44.715Z,6.40
2018-12-19T02:11:49.637Z,6.40
2018-12-19T02:13:54.531Z,6.30
2018-12-19T02:15:59.333Z,6.30
2018-12-19T02:18:04.215Z,6.40
2018-12-19T02:20:09.201Z,6.40
2018-12-19T02:22:15.224Z,6.40
2018-12-19T02:24:20.494Z,6.50
2018-12-19T02:26:26.804Z,6.50
2018-12-19T02:28:31.815Z,6.50
2018-12-19T02:30:36.732Z,6.50
2018-12-19T02:32:41.496Z,6.50
2018-12-19T02:34:46.218Z,6.50
2018-12-19T02:36:51.066Z,6.40
2018-12-19T02:38:56.129Z,6.50
2018-12-19T02:41:01.352Z,6.40
2018-12-19T02:43:06.316Z,6.50
2018-12-19T02:45:11.304Z,6.50
2018-12-19T02:47:16.055Z,6.60
2018-12-19T02:49:21.286Z,6.50
2018-12-19T02:51:26.225Z,6.40
2018-12-19T02:53:31.192Z,6.30
2018-12-19T02:55:36.115Z,6.20
2018-12-19T02:57:40.985Z,6.30
2018-12-19T02:59:45.920Z,6.40
2018-12-19T03:01:50.820Z,6.30
2018-12-19T03:03:55.813Z,6.40
2018-12-19T03:06:00.647Z,6.40
2018-12-19T03:08:05.792Z,6.40
2018-12-19T03:10:10.917Z,6.50
2018-12-19T03:12:15.934Z,6.50
2018-12-19T03:14:21.251Z,6.50
2018-12-19T03:16:26.192Z,6.50
2018-12-19T03:18:31.116Z,6.50
2018-12-19T03:20:35.921Z,6.40
2018-12-19T03:22:41.360Z,6.40
2018-12-19T03:24:46.381Z,6.40
2018-12-19T03:26:51.498Z,6.30
2018-12-19T03:28:56.322Z,6.30
2018-12-19T03:31:01.257Z,6.20
2018-12-19T03:33:06.604Z,6.30
2018-12-19T03:35:11.661Z,6.30
2018-12-19T03:37:17.147Z,6.40
2018-12-19T03:39:22.072Z,6.30
2018-12-19T03:41:26.802Z,6.20
2018-12-19T03:43:32.194Z,6.20
2018-12-19T03:45:37.151Z,6.30
2018-12-19T03:47:41.988Z,6.30
2018-12-19T03:52:08.272Z,6.30
2018-12-19T03:54:13.370Z,6.30
2018-12-19T03:56:18.479Z,6.30
2018-12-19T03:58:24.027Z,6.30
2018-12-19T04:00:28.926Z,6.40
2018-12-19T04:02:33.855Z,6.40
2018-12-19T04:04:38.799Z,6.40
2018-12-19T04:06:43.873Z,6.50
2018-12-19T04:08:48.942Z,6.50
2018-12-19T04:10:53.937Z,6.40
2018-12-19T04:12:59.020Z,6.40
2018-12-19T04:15:04.129Z,6.40
2018-12-19T04:17:09.086Z,6.50
2018-12-19T04:19:14.358Z,6.40
2018-12-19T04:21:19.105Z,6.40
2018-12-19T04:23:25.554Z,6.40
2018-12-19T04:25:31.142Z,6.40
2018-12-19T04:27:37.920Z,6.40
2018-12-19T04:29:43.163Z,6.40
2018-12-19T04:31:48.197Z,6.30
2018-12-19T04:33:53.028Z,6.40
2018-12-19T04:35:58.027Z,6.30
2018-12-19T04:38:03.010Z,6.30
2018-12-19T04:40:07.990Z,6.40
2018-12-19T04:42:13.607Z,6.50
2018-12-19T04:44:18.632Z,6.50
2018-12-19T04:46:23.401Z,6.40
2018-12-19T04:48:28.362Z,6.40
2018-12-19T04:50:33.319Z,6.40
2018-12-19T04:52:38.398Z,6.40
2018-12-19T04:54:43.235Z,6.40
2018-12-19T04:56:48.644Z,6.40
2018-12-19T04:58:54.632Z,6.40
2018-12-19T05:00:59.695Z,6.30
2018-12-19T05:03:04.860Z,6.40
2018-12-19T05:05:10.511Z,6.40
2018-12-19T05:07:16.246Z,6.50
2018-12-19T05:09:21.289Z,6.50
2018-12-19T05:11:26.342Z,6.40
2018-12-19T05:13:32.389Z,6.40
2018-12-19T05:15:37.407Z,6.30
2018-12-19T05:17:42.215Z,6.40
2018-12-19T05:19:47.361Z,6.40
2018-12-19T05:21:53.589Z,6.50
2018-12-19T05:23:58.513Z,6.60
2018-12-19T05:26:03.613Z,6.60
2018-12-19T05:28:08.559Z,6.60
2018-12-19T05:30:14.413Z,6.60
2018-12-19T05:32:19.406Z,6.60
2018-12-19T05:34:24.382Z,6.60
2018-12-19T05:36:29.369Z,6.60
2018-12-19T05:38:34.457Z,6.60
2018-12-19T05:40:39.836Z,6.60
2018-12-19T05:42:45.734Z,6.60
2018-12-19T05:44:50.851Z,6.60
2018-12-19T05:46:56.936Z,6.60
2018-12-19T05:49:03.440Z,6.70
2018-12-19T05:51:08.501Z,6.60
2018-12-19T05:53:14.425Z,6.60
2018-12-19T05:55:19.933Z,6.60
2018-12-19T05:57:25.916Z,6.60
2018-12-19T05:59:31.031Z,6.70
2018-12-19T06:01:41.845Z,6.70
2018-12-19T06:03:46.833Z,6.70
2018-12-19T06:05:51.961Z,6.70
2018-12-19T06:07:57.007Z,6.70
2018-12-19T06:10:02.585Z,6.70
2018-12-19T06:12:07.722Z,6.70
2018-12-19T06:14:12.629Z,6.80
2018-12-19T06:16:17.597Z,6.70
2018-12-19T06:18:23.357Z,6.70
2018-12-19T06:20:28.282Z,6.70
2018-12-19T06:22:33.017Z,6.70
2018-12-19T06:24:38.083Z,6.70
2018-12-19T06:26:43.023Z,6.70
2018-12-19T06:28:48.035Z,6.60
2018-12-19T06:30:52.918Z,6.70
2018-12-19T06:32:58.321Z,6.70
2018-12-19T06:35:03.421Z,6.70
2018-12-19T06:37:09.460Z,6.70
2018-12-19T06:39:14.626Z,6.70
2018-12-19T06:41:19.562Z,6.70
2018-12-19T06:43:24.368Z,6.70
2018-12-19T06:45:29.398Z,6.70
2018-12-19T06:47:34.377Z,6.70
2018-12-19T06:49:39.505Z,6.60
2018-12-19T06:51:44.662Z,6.70
2018-12-19T06:53:50.237Z,6.70
2018-12-19T06:55:55.294Z,6.70
2018-12-19T06:58:00.393Z,6.70
2018-12-19T07:00:07.445Z,6.70
2018-12-19T07:02:12.504Z,6.70
2018-12-19T07:04:17.586Z,6.70
2018-12-19T07:06:23.000Z,6.80
2018-12-19T07:08:33.327Z,6.80
2018-12-19T07:10:39.246Z,6.80
2018-12-19T07:12:45.957Z,6.80
2018-12-19T07:14:51.309Z,6.80
2018-12-19T07:16:56.359Z,6.80
2018-12-19T07:19:01.669Z,6.80
2018-12-19T07:21:06.881Z,6.90
2018-12-19T07:23:11.915Z,6.90
2018-12-19T07:25:18.156Z,6.90
2018-12-19T07:27:23.502Z,6.90
2018-12-19T07:29:28.469Z,6.90
2018-12-19T07:31:36.588Z,6.90
2018-12-19T07:33:43.069Z,6.90
2018-12-19T07:35:49.565Z,7.00
2018-12-19T07:37:54.744Z,7.00
2018-12-19T07:39:59.970Z,7.00
2018-12-19T07:42:05.754Z,7.00
2018-12-19T07:44:10.845Z,7.00
2018-12-19T07:46:19.855Z,7.10
2018-12-19T07:48:23.626Z,7.10
2018-12-19T07:50:28.753Z,7.10
2018-12-19T07:52:33.835Z,7.10
2018-12-19T07:54:41.010Z,7.20
2018-12-19T07:56:48.984Z,7.20
2018-12-19T07:58:54.570Z,7.20
2018-12-19T08:00:59.629Z,7.20
2018-12-19T08:03:05.336Z,7.20
2018-12-19T08:05:11.297Z,7.30
2018-12-19T08:07:17.115Z,7.30
2018-12-19T08:09:22.558Z,7.30
2018-12-19T08:11:28.428Z,7.40
2018-12-19T08:13:34.407Z,7.40
2018-12-19T08:15:41.246Z,7.40
2018-12-19T08:17:47.249Z,7.40
2018-12-19T08:19:53.362Z,7.40
2018-12-19T08:22:00.346Z,7.40
2018-12-19T08:24:05.718Z,7.40
2018-12-19T08:26:11.709Z,7.40
2018-12-19T08:28:18.947Z,7.40
2018-12-19T08:30:24.793Z,7.40
2018-12-19T08:32:30.973Z,7.40
2018-12-19T08:34:36.457Z,7.40
2018-12-19T08:36:42.262Z,7.40
2018-12-19T08:38:48.602Z,7.40
2018-12-19T08:40:58.699Z,7.50
2018-12-19T08:43:03.054Z,7.50
2018-12-19T08:45:08.155Z,7.50
2018-12-19T08:47:13.731Z,7.50
2018-12-19T08:49:18.771Z,7.50
2018-12-19T08:51:24.968Z,7.50
2018-12-19T08:53:30.034Z,7.60
2018-12-19T08:55:36.144Z,7.70
2018-12-19T08:57:41.429Z,7.80
2018-12-19T09:02:07.180Z,7.90
2018-12-19T09:04:12.625Z,7.90
2018-12-19T09:06:18.276Z,7.90
2018-12-19T09:08:23.591Z,8.00
2018-12-19T09:10:29.731Z,7.90
2018-12-19T09:12:34.797Z,7.90
2018-12-19T09:14:39.819Z,7.90
2018-12-19T09:16:44.574Z,8.00
2018-12-19T09:18:49.684Z,7.90
2018-12-19T09:20:55.313Z,7.90
2018-12-19T09:23:00.453Z,8.00
2018-12-19T09:25:06.238Z,8.10
2018-12-19T09:27:11.834Z,8.10
2018-12-19T09:29:16.926Z,8.10
2018-12-19T09:31:22.520Z,8.10
2018-12-19T09:33:27.811Z,8.10
2018-12-19T09:35:33.178Z,8.10
2018-12-19T09:37:39.473Z,8.10
2018-12-19T09:39:44.555Z,8.10
2018-12-19T09:41:50.322Z,8.20
2018-12-19T09:43:55.383Z,8.40
2018-12-19T09:46:00.581Z,8.40
2018-12-19T09:48:05.627Z,8.40
2018-12-19T09:50:11.150Z,8.40
2018-12-19T09:52:16.441Z,8.40
2018-12-19T09:54:21.576Z,8.30
2018-12-19T09:56:26.590Z,8.30
2018-12-19T09:58:31.673Z,8.20
2018-12-19T10:00:37.718Z,8.20
2018-12-19T10:02:42.772Z,8.10
2018-12-19T10:04:47.841Z,8.20
2018-12-19T10:06:52.861Z,8.20
2018-12-19T10:08:57.755Z,8.20
2018-12-19T10:11:02.753Z,8.20
2018-12-19T10:13:07.848Z,8.20
2018-12-19T10:15:13.751Z,8.10
2018-12-19T10:17:20.501Z,8.10
2018-12-19T10:19:25.620Z,8.10
2018-12-19T10:23:44.509Z,8.10
2018-12-19T10:25:53.231Z,8.10
2018-12-19T10:27:58.215Z,8.10
2018-12-19T10:30:03.746Z,8.10
2018-12-19T10:32:08.788Z,8.10
2018-12-19T10:34:13.631Z,8.20
2018-12-19T10:38:45.374Z,8.20
2018-12-19T10:40:57.683Z,8.20
2018-12-19T10:43:03.441Z,8.20
2018-12-19T10:45:11.827Z,8.20
2018-12-19T10:47:17.323Z,8.30
2018-12-19T10:49:22.741Z,8.30
2018-12-19T10:51:28.974Z,8.30
2018-12-19T10:53:34.063Z,8.40
2018-12-19T10:55:39.100Z,8.40
2018-12-19T10:57:44.246Z,8.40
2018-12-19T10:59:52.294Z,8.60
2018-12-19T11:01:58.094Z,8.60
2018-12-19T11:04:04.002Z,8.70
2018-12-19T11:06:09.128Z,8.80
2018-12-19T11:08:14.331Z,8.90
2018-12-19T11:10:21.023Z,8.90
2018-12-19T11:12:26.967Z,9.00
2018-12-19T11:14:33.292Z,9.10
2018-12-19T11:16:38.013Z,9.20
2018-12-19T11:18:43.387Z,9.30
2018-12-19T11:20:48.456Z,9.30
2018-12-19T11:22:54.656Z,9.40
2018-12-19T11:25:02.365Z,9.50
2018-12-19T11:27:08.826Z,9.60
2018-12-19T11:29:14.215Z,9.70
2018-12-19T11:31:20.191Z,9.70
2018-12-19T11:33:26.003Z,9.80
2018-12-19T11:35:31.058Z,9.80
2018-12-19T11:37:37.334Z,9.80
2018-12-19T11:39:43.909Z,9.80
2018-12-19T11:41:48.984Z,9.80
2018-12-19T11:43:54.123Z,9.70
2018-12-19T11:46:00.607Z,9.80
2018-12-19T11:48:05.759Z,9.80
2018-12-19T11:50:11.352Z,9.80
2018-12-19T11:52:17.041Z,9.80
2018-12-19T11:54:23.324Z,9.70
2018-12-19T11:56:29.230Z,9.80
2018-12-19T11:58:34.544Z,9.80
2018-12-19T12:00:41.853Z,9.70
2018-12-19T12:02:46.861Z,9.70
2018-12-19T12:04:55.293Z,9.80
2018-12-19T12:07:00.899Z,9.70
2018-12-19T12:09:08.948Z,9.90
2018-12-19T12:11:14.361Z,10.00
2018-12-19T12:13:19.642Z,10.00
2018-12-19T12:15:32.978Z,10.00
2018-12-19T12:17:38.968Z,10.00
2018-12-19T12:19:45.064Z,10.00
2018-12-19T12:21:50.912Z,10.00
2018-12-19T12:23:55.721Z,10.00
2018-12-19T12:26:00.833Z,10.00
2018-12-19T12:28:08.781Z,10.00
2018-12-19T12:30:14.303Z,10.00
2018-12-19T12:32:19.061Z,10.00
2018-12-19T12:34:25.712Z,10.00
2018-12-19T12:36:30.946Z,10.10
2018-12-19T12:38:36.922Z,10.10
2018-12-19T12:40:41.891Z,10.20
2018-12-19T12:42:47.004Z,10.10
2018-12-19T12:44:52.437Z,10.10
2018-12-19T12:46:58.174Z,10.10
2018-12-19T12:49:04.228Z,10.00
2018-12-19T12:51:09.645Z,10.00
2018-12-19T12:53:16.172Z,10.00
2018-12-19T12:55:21.420Z,10.00
2018-12-19T12:57:27.430Z,10.00
2018-12-19T12:59:32.918Z,10.00
2018-12-19T13:01:38.829Z,10.00
2018-12-19T13:03:44.562Z,10.00
2018-12-19T13:05:49.422Z,10.00
2018-12-19T13:07:54.895Z,10.00
2018-12-19T13:09:59.917Z,10.00
2018-12-19T13:12:10.189Z,10.00
2018-12-19T13:14:15.672Z,9.90
2018-12-19T13:16:21.502Z,10.00
2018-12-19T13:18:26.697Z,10.00
2018-12-19T13:20:33.040Z,10.00
2018-12-19T13:22:38.170Z,10.00
2018-12-19T13:24:43.780Z,9.90
2018-12-19T13:26:49.578Z,9.90
2018-12-19T13:28:55.349Z,9.90
2018-12-19T13:31:00.606Z,9.90
2018-12-19T13:33:06.821Z,9.90
2018-12-19T13:35:11.750Z,9.90
2018-12-19T13:37:16.976Z,9.90
2018-12-19T13:39:22.225Z,9.90
2018-12-19T13:41:28.901Z,10.10
2018-12-19T13:43:37.431Z,10.00
2018-12-19T13:45:45.589Z,10.00
2018-12-19T13:47:51.784Z,10.00
2018-12-19T13:49:57.808Z,10.00
2018-12-19T13:52:03.089Z,10.00
2018-12-19T13:54:09.276Z,10.10
2018-12-19T13:56:15.001Z,10.20
2018-12-19T13:58:21.378Z,10.20
2018-12-19T14:00:26.603Z,10.20
2018-12-19T14:02:31.896Z,10.20
2018-12-19T14:04:38.150Z,10.20
2018-12-19T14:06:43.239Z,10.20
2018-12-19T14:08:48.427Z,10.30
2018-12-19T14:10:53.204Z,10.30
2018-12-19T14:12:58.670Z,10.30
2018-12-19T14:15:04.403Z,10.20
2018-12-19T14:17:11.004Z,10.10
2018-12-19T14:19:16.500Z,10.10
2018-12-19T14:21:21.786Z,10.10
2018-12-19T14:23:28.383Z,10.10
2018-12-19T14:25:33.535Z,10.00
2018-12-19T14:27:39.255Z,10.00
2018-12-19T14:29:44.701Z,10.00
2018-12-19T14:31:49.392Z,9.90
2018-12-19T14:33:59.622Z,10.00
2018-12-19T14:36:05.631Z,10.00
2018-12-19T14:38:11.605Z,9.90
2018-12-19T14:40:16.899Z,9.90
2018-12-19T14:42:22.471Z,9.90
2018-12-19T14:44:27.390Z,9.90
2018-12-19T14:46:32.710Z,9.90
2018-12-19T14:48:37.966Z,9.90
2018-12-19T14:50:42.819Z,9.90
2018-12-19T14:52:48.043Z,9.80
2018-12-19T14:54:53.149Z,9.80
2018-12-19T14:56:57.892Z,9.80
2018-12-19T14:59:08.612Z,9.70
2018-12-19T15:01:13.969Z,9.70
2018-12-19T15:03:19.645Z,9.70
2018-12-19T15:05:24.384Z,9.70
2018-12-19T15:07:29.538Z,9.80
2018-12-19T15:09:34.390Z,9.80
2018-12-19T15:11:40.622Z,9.80
2018-12-19T15:13:45.752Z,9.80
2018-12-19T15:15:56.202Z,9.80
2018-12-19T15:18:01.258Z,9.70
2018-12-19T15:20:07.651Z,9.70
2018-12-19T15:22:13.069Z,9.70
2018-12-19T15:24:18.708Z,9.70
2018-12-19T15:26:26.137Z,9.70
2018-12-19T15:28:31.406Z,9.70
2018-12-19T15:30:37.436Z,9.70
2018-12-19T15:32:43.195Z,9.60
2018-12-19T15:34:49.787Z,9.50
2018-12-19T15:36:54.441Z,9.50
2018-12-19T15:38:59.257Z,9.40
2018-12-19T15:41:04.077Z,9.40
2018-12-19T15:43:10.980Z,9.40
2018-12-19T15:45:16.654Z,9.40
2018-12-19T15:47:24.268Z,9.30
2018-12-19T15:49:29.518Z,9.30
2018-12-19T15:51:34.950Z,9.30
2018-12-19T15:53:41.701Z,9.30
2018-12-19T15:55:47.777Z,9.30
2018-12-19T15:57:53.063Z,9.30
2018-12-19T15:59:59.159Z,9.30
2018-12-19T16:02:06.710Z,9.30
2018-12-19T16:04:11.735Z,9.30
2018-12-19T16:06:16.562Z,9.50
2018-12-19T16:08:22.534Z,9.50
2018-12-19T16:10:27.588Z,9.50
2018-12-19T16:12:39.185Z,9.50
2018-12-19T16:14:43.008Z,9.40
2018-12-19T16:16:49.146Z,9.40
2018-12-19T16:18:54.211Z,9.40
2018-12-19T16:20:59.360Z,9.40
2018-12-19T16:23:04.265Z,9.40
2018-12-19T16:25:09.469Z,9.50
2018-12-19T16:27:15.996Z,9.40
2018-12-19T16:29:22.231Z,9.40
2018-12-19T16:31:28.431Z,9.40
2018-12-19T16:35:49.330Z,9.50
2018-12-19T16:37:56.480Z,9.40
2018-12-19T16:40:01.463Z,9.40
2018-12-19T16:42:07.378Z,9.40
2018-12-19T16:44:12.673Z,9.50
2018-12-19T16:46:18.686Z,9.40
2018-12-19T16:48:24.303Z,9.50
2018-12-19T16:50:31.038Z,9.40
2018-12-19T16:52:36.002Z,9.40
2018-12-19T16:54:41.699Z,9.40
2018-12-19T16:56:47.820Z,9.40
2018-12-19T16:58:54.203Z,9.50
2018-12-19T17:00:59.668Z,9.40
2018-12-19T17:03:05.622Z,9.30
2018-12-19T17:05:11.388Z,9.40
2018-12-19T17:07:17.369Z,9.30
2018-12-19T17:09:22.618Z,9.30
2018-12-19T17:11:28.907Z,9.20
2018-12-19T17:13:34.264Z,9.20
2018-12-19T17:15:40.221Z,9.10
2018-12-19T17:17:45.937Z,9.00
2018-12-19T17:19:53.501Z,9.00
2018-12-19T17:21:59.331Z,8.90
2018-12-19T17:24:05.207Z,8.90
2018-12-19T17:26:10.819Z,8.90
2018-12-19T17:28:16.179Z,8.90
2018-12-19T17:30:21.761Z,8.90
2018-12-19T17:32:27.413Z,8.90
2018-12-19T17:34:33.658Z,8.90
2018-12-19T17:36:42.264Z,8.90
2018-12-19T17:38:48.124Z,8.90
2018-12-19T17:40:56.243Z,9.00
2018-12-19T17:43:01.941Z,9.00
2018-12-19T17:45:07.566Z,9.00
2018-12-19T17:47:13.573Z,9.00
2018-12-19T17:49:18.838Z,8.90
2018-12-19T17:51:24.819Z,8.90
2018-12-19T17:53:31.171Z,8.90
2018-12-19T17:55:36.672Z,8.80
2018-12-19T17:57:43.074Z,8.70
2018-12-19T17:59:49.256Z,8.70
2018-12-19T18:01:54.653Z,8.70
2018-12-19T18:04:01.798Z,8.60
2018-12-19T18:06:09.507Z,8.60
2018-12-19T18:08:15.716Z,8.80
2018-12-19T18:10:22.187Z,8.80
2018-12-19T18:12:28.125Z,8.80
2018-12-19T18:14:35.065Z,8.70
2018-12-19T18:16:40.071Z,8.80
2018-12-19T18:18:48.043Z,8.80
2018-12-19T18:20:53.069Z,8.80
2018-12-19T18:22:58.177Z,8.80
2018-12-19T18:25:03.379Z,8.90
2018-12-19T18:27:09.483Z,8.90
2018-12-19T18:29:16.109Z,8.80
2018-12-19T18:31:22.578Z,8.80
2018-12-19T18:33:27.828Z,8.90
2018-12-19T18:35:33.841Z,8.90
2018-12-19T18:37:39.524Z,8.90
2018-12-19T18:39:45.195Z,8.90
2018-12-19T18:41:50.506Z,8.90
2018-12-19T18:43:56.556Z,9.00
2018-12-19T18:46:02.623Z,9.00
2018-12-19T18:48:07.810Z,9.00
2018-12-19T18:50:13.260Z,9.00
2018-12-19T18:52:19.175Z,9.00
2018-12-19T18:54:24.781Z,9.00
2018-12-19T18:56:31.458Z,9.00
2018-12-19T18:58:38.075Z,9.00
2018-12-19T19:00:45.756Z,9.10
2018-12-19T19:02:51.730Z,9.00
2018-12-19T19:04:57.626Z,9.10
2018-12-19T19:07:04.555Z,9.10
2018-12-19T19:09:09.811Z,9.00
2018-12-19T19:11:15.709Z,8.90
2018-12-19T19:13:23.060Z,8.80
2018-12-19T19:15:30.510Z,8.70
2018-12-19T19:17:36.429Z,8.60
2018-12-19T19:19:41.768Z,8.50
2018-12-19T19:21:47.025Z,8.40
2018-12-19T19:23:53.405Z,8.30
2018-12-19T19:25:59.309Z,8.30
2018-12-19T19:28:04.522Z,8.20
2018-12-19T19:30:11.746Z,8.10
2018-12-19T19:32:18.728Z,8.10
2018-12-19T19:34:25.721Z,8.00
2018-12-19T19:36:31.314Z,8.00
2018-12-19T19:38:37.574Z,8.00
2018-12-19T19:40:43.311Z,8.00
2018-12-19T19:42:50.282Z,7.90
2018-12-19T19:44:55.942Z,7.90
2018-12-19T19:47:02.012Z,7.90
2018-12-19T19:49:09.025Z,7.80
2018-12-19T19:51:17.186Z,7.80
2018-12-19T19:53:27.664Z,7.80
2018-12-19T19:55:34.455Z,7.80
2018-12-19T19:57:41.605Z,7.80
2018-12-19T19:59:53.357Z,7.70
2018-12-19T20:02:01.891Z,7.70
2018-12-19T20:04:07.974Z,7.70
2018-12-19T20:06:16.733Z,7.60
2018-12-19T20:08:25.132Z,7.60
2018-12-19T20:10:32.533Z,7.60
2018-12-19T20:12:40.873Z,7.60
2018-12-19T20:14:51.109Z,7.60
2018-12-19T20:17:02.829Z,7.60
2018-12-19T20:19:11.690Z,7.70
2018-12-19T20:21:19.842Z,7.70
2018-12-19T20:23:27.632Z,7.70
2018-12-19T20:25:36.879Z,7.80
2018-12-19T20:27:45.816Z,7.80
2018-12-19T20:29:55.115Z,7.80
2018-12-19T20:32:02.201Z,7.80
2018-12-19T20:36:28.756Z,7.80
2018-12-19T20:38:34.416Z,7.90
2018-12-19T20:40:43.508Z,7.90
2018-12-19T20:42:51.486Z,7.90
2018-12-19T20:45:01.511Z,8.00
2018-12-19T20:47:09.326Z,8.00
2018-12-19T20:49:18.116Z,8.00
2018-12-19T20:51:26.257Z,8.10
2018-12-19T20:53:34.141Z,8.10
2018-12-19T20:55:43.698Z,8.10
2018-12-19T20:57:51.459Z,8.20
2018-12-19T21:00:01.415Z,8.10
2018-12-19T21:02:12.531Z,8.20
2018-12-19T21:04:19.071Z,8.20
2018-12-19T21:06:25.037Z,8.20
2018-12-19T21:08:36.385Z,8.30
2018-12-19T21:10:46.468Z,8.30
2018-12-19T21:12:51.735Z,8.30
2018-12-19T21:14:58.601Z,8.30
2018-12-19T21:17:10.613Z,8.30
2018-12-19T21:19:16.640Z,8.30
2018-12-19T21:21:23.566Z,8.40
2018-12-19T21:23:30.888Z,8.40
2018-12-19T21:25:36.251Z,8.50
2018-12-19T21:27:41.457Z,8.50
2018-12-19T21:29:47.389Z,8.50
2018-12-19T21:31:53.061Z,8.50
2018-12-19T21:33:59.725Z,8.50
2018-12-19T21:36:06.844Z,8.50
2018-12-19T21:38:13.176Z,8.50
2018-12-19T21:40:19.961Z,8.40
2018-12-19T21:42:25.780Z,8.50
2018-12-19T21:44:32.129Z,8.40
2018-12-19T21:46:39.745Z,8.30
2018-12-19T21:48:46.977Z,8.20
2018-12-19T21:50:54.596Z,8.20
2018-12-19T21:53:02.151Z,8.20
2018-12-19T21:55:08.674Z,8.10
2018-12-19T21:57:16.615Z,8.00
2018-12-19T21:59:22.340Z,8.10
2018-12-19T22:01:28.150Z,8.00
2018-12-19T22:03:34.352Z,8.10
2018-12-19T22:05:41.198Z,8.00
2018-12-19T22:07:48.786Z,8.00
2018-12-19T22:09:55.195Z,8.00
2018-12-19T22:12:02.351Z,8.00
2018-12-19T22:14:08.768Z,8.00
2018-12-19T22:16:20.038Z,8.10
2018-12-19T22:18:30.777Z,8.00
2018-12-19T22:20:37.061Z,8.10
2018-12-19T22:22:45.359Z,8.10
2018-12-19T22:24:52.025Z,8.10
2018-12-19T22:26:57.598Z,8.10
2018-12-19T22:29:08.249Z,8.00
2018-12-19T22:31:17.879Z,8.00
2018-12-19T22:33:29.833Z,8.00
2018-12-19T22:35:38.344Z,8.00
2018-12-19T22:40:27.216Z,7.90
2018-12-19T22:42:37.480Z,7.70
2018-12-19T22:44:49.680Z,7.70
2018-12-19T22:47:00.634Z,7.70
2018-12-19T22:49:08.036Z,7.70
2018-12-19T22:51:15.848Z,7.70
2018-12-19T22:53:22.039Z,7.70
2018-12-19T22:55:29.535Z,7.70
2018-12-19T22:57:36.723Z,7.70
2018-12-19T22:59:42.401Z,7.70
2018-12-19T23:01:52.765Z,7.80
2018-12-19T23:04:03.879Z,7.80
2018-12-19T23:06:09.138Z,7.80
2018-12-19T23:08:15.885Z,7.80
2018-12-19T23:10:21.794Z,7.80
2018-12-19T23:12:29.045Z,7.90
2018-12-19T23:14:34.708Z,7.80
2018-12-19T23:16:40.387Z,7.80
2018-12-19T23:18:47.863Z,7.70
2018-12-19T23:20:53.559Z,7.70
2018-12-19T23:22:58.939Z,7.60
2018-12-19T23:25:04.154Z,7.60
2018-12-19T23:27:09.742Z,7.60
2018-12-19T23:29:16.505Z,7.50
2018-12-19T23:31:24.403Z,7.50
2018-12-19T23:33:30.040Z,7.50
2018-12-19T23:35:35.237Z,7.40
2018-12-19T23:37:40.360Z,7.40
2018-12-19T23:39:46.161Z,7.30
2018-12-19T23:41:51.511Z,7.30
2018-12-19T23:43:57.003Z,7.40
2018-12-19T23:46:02.112Z,7.30
2018-12-19T23:48:07.471Z,7.30
2018-12-19T23:50:12.714Z,7.20
2018-12-19T23:52:17.760Z,7.20
2018-12-19T23:54:29.045Z,7.20
2018-12-19T23:56:31.794Z,7.20
2018-12-19T23:58:37.053Z,7.10
